Time;durP1;ratioP1;P1;durP2;ratioP2;P2;SDS_P1;SDS_P2;PMS_P1;PMS_P2;Temp;Humidity;BMP_temperature;BMP_pressure;BME280_temperature;BME280_humidity;BME280_pressure;Samples;Min_cycle;Max_cycle;Signal;HPM_P1;HPM_P2
2021/01/18 06:50:50;;;;;;;5.45;3.17;;;3.20;99.90;;;;;;3815402;27;20052;-69
2021/01/18 06:53:23;;;;;;;9.38;3.55;;;3.20;99.90;;;;;;4892343;29;20132;-70
2021/01/18 06:56:02;;;;;;;8.65;3.47;;;3.30;99.90;;;;;;4892660;29;20037;-69
2021/01/18 06:58:59;;;;;;;9.93;3.45;;;3.30;99.90;;;;;;4892204;29;20025;-68
2021/01/18 07:01:31;;;;;;;13.00;3.53;;;3.30;99.90;;;;;;4901941;29;20024;-72
2021/01/18 07:04:08;;;;;;;9.57;3.55;;;3.30;99.90;;;;;;4910916;29;20780;-72
2021/01/18 07:06:57;;;;;;;16.48;3.80;;;3.30;99.90;;;;;;4911661;29;20032;-69
2021/01/18 07:09:26;;;;;;;17.35;3.53;;;3.30;99.90;;;;;;4910869;29;20040;-69
2021/01/18 07:12:03;;;;;;;4.38;2.75;;;3.40;99.90;;;;;;4911151;29;20037;-68
2021/01/18 07:14:31;;;;;;;5.30;2.53;;;3.40;99.90;;;;;;4910345;29;20032;-72
2021/01/18 07:17:03;;;;;;;8.43;3.40;;;3.40;99.90;;;;;;4910922;29;20047;-70
2021/01/18 07:19:37;;;;;;;13.43;3.88;;;3.40;99.90;;;;;;4909766;29;20032;-70
2021/01/18 07:22:23;;;;;;;4.90;2.65;;;3.40;99.90;;;;;;4910528;29;20412;-68
2021/01/18 07:24:59;;;;;;;3.67;2.30;;;3.40;99.90;;;;;;4909458;29;20083;-68
2021/01/18 07:27:25;;;;;;;9.00;3.47;;;3.60;99.90;;;;;;4910033;29;20032;-69
2021/01/18 07:29:51;;;;;;;6.15;3.50;;;3.40;99.90;;;;;;4909941;29;20064;-70
2021/01/18 07:32:20;;;;;;;13.93;4.47;;;3.40;99.90;;;;;;4910608;29;20045;-68
2021/01/18 07:34:49;;;;;;;6.43;3.20;;;3.40;99.90;;;;;;4908978;29;20028;-70
2021/01/18 07:37:16;;;;;;;6.03;2.78;;;3.40;99.90;;;;;;4909841;29;20024;-70
2021/01/18 07:39:43;;;;;;;12.38;4.25;;;3.40;99.90;;;;;;4910648;29;20500;-69
2021/01/18 07:42:33;;;;;;;9.63;3.05;;;3.40;99.90;;;;;;4910506;29;20032;-70
2021/01/18 07:45:12;;;;;;;6.78;3.47;;;3.40;99.90;;;;;;4905361;29;20063;-69
2021/01/18 07:47:56;;;;;;;4.35;2.72;;;3.50;99.90;;;;;;4898783;29;20037;-72
2021/01/18 07:50:41;;;;;;;8.38;3.80;;;3.50;99.90;;;;;;4905971;29;20056;-69
2021/01/18 07:53:10;;;;;;;8.57;2.88;;;3.40;99.90;;;;;;4909129;29;20370;-70
2021/01/18 07:55:36;;;;;;;7.88;3.40;;;3.50;99.90;;;;;;4910304;29;20040;-71
2021/01/18 07:58:21;;;;;;;10.35;4.57;;;3.50;99.90;;;;;;4909203;29;20033;-71
2021/01/18 08:00:50;;;;;;;8.20;3.25;;;3.50;99.90;;;;;;4909374;29;20169;-72
2021/01/18 08:03:22;;;;;;;7.68;3.45;;;3.50;99.90;;;;;;4909480;29;20072;-75
2021/01/18 08:05:49;;;;;;;6.00;3.42;;;3.50;99.90;;;;;;4909327;29;20852;-71
2021/01/18 08:08:35;;;;;;;17.10;4.65;;;3.50;99.90;;;;;;4910470;29;20496;-72
2021/01/18 08:11:15;;;;;;;12.65;3.90;;;3.50;99.90;;;;;;4909006;29;20052;-71
2021/01/18 08:13:50;;;;;;;6.18;3.50;;;3.50;99.90;;;;;;4909792;29;20048;-72
2021/01/18 08:16:33;;;;;;;9.65;4.68;;;3.60;99.90;;;;;;4909967;29;20147;-72
2021/01/18 08:19:18;;;;;;;9.23;3.60;;;3.50;99.90;;;;;;4903907;29;20060;-73
2021/01/18 08:21:46;;;;;;;12.60;3.97;;;3.60;99.90;;;;;;4890343;29;20029;-72
2021/01/18 08:24:27;;;;;;;9.43;3.90;;;3.60;99.90;;;;;;4908364;29;20024;-70
2021/01/18 08:26:58;;;;;;;17.75;4.18;;;3.60;99.90;;;;;;4907776;29;20033;-71
2021/01/18 08:29:52;;;;;;;11.75;4.43;;;3.70;99.90;;;;;;4908615;29;20036;-70
2021/01/18 08:32:20;;;;;;;12.60;5.40;;;3.60;99.90;;;;;;4909104;29;20040;-71
2021/01/18 08:34:53;;;;;;;17.55;7.13;;;3.60;99.90;;;;;;4909620;29;20113;-71
2021/01/18 08:37:19;;;;;;;16.27;6.22;;;3.60;99.90;;;;;;4909828;29;20077;-70
2021/01/18 08:39:55;;;;;;;11.07;6.30;;;3.70;99.90;;;;;;4907518;29;20037;-72
2021/01/18 08:42:41;;;;;;;29.50;6.88;;;3.70;99.90;;;;;;4908369;29;20119;-70
2021/01/18 08:45:20;;;;;;;22.48;5.80;;;3.70;99.90;;;;;;4908143;29;20025;-70
2021/01/18 08:48:08;;;;;;;21.25;6.82;;;3.70;99.90;;;;;;4908327;29;20174;-69
2021/01/18 08:51:05;;;;;;;14.18;6.10;;;3.80;99.90;;;;;;4909171;29;20080;-69
2021/01/18 08:53:46;;;;;;;14.23;5.13;;;3.80;99.90;;;;;;4906124;29;20112;-69
2021/01/18 08:56:21;;;;;;;15.45;5.28;;;3.80;99.90;;;;;;4909241;29;20028;-71
2021/01/18 08:58:47;;;;;;;18.73;6.18;;;3.80;99.90;;;;;;4909212;29;20036;-70
2021/01/18 09:01:15;;;;;;;20.52;6.72;;;3.80;99.90;;;;;;4908104;29;20024;-70
2021/01/18 09:03:41;;;;;;;14.23;7.45;;;3.80;99.90;;;;;;4909105;29;20024;-71
2021/01/18 09:06:07;;;;;;;13.80;6.43;;;3.90;99.90;;;;;;4909105;29;20508;-72
2021/01/18 09:08:33;;;;;;;13.20;6.80;;;3.90;99.90;;;;;;4909519;29;20029;-70
2021/01/18 09:11:02;;;;;;;14.20;6.45;;;3.90;99.90;;;;;;4908991;29;20031;-69
2021/01/18 09:13:30;;;;;;;19.17;7.53;;;3.90;99.90;;;;;;4907947;29;20517;-69
2021/01/18 09:16:02;;;;;;;9.93;6.13;;;3.90;99.90;;;;;;4907604;29;20185;-70
2021/01/18 09:18:28;;;;;;;9.38;5.75;;;3.90;99.90;;;;;;4908768;29;20028;-69
2021/01/18 09:20:56;;;;;;;13.15;6.20;;;3.90;99.90;;;;;;4902906;29;20028;-69
2021/01/18 09:23:22;;;;;;;21.60;7.57;;;3.90;99.90;;;;;;4903789;29;20044;-69
2021/01/18 09:25:58;;;;;;;14.75;7.43;;;4.00;99.90;;;;;;4908286;29;20061;-69
2021/01/18 09:28:24;;;;;;;36.22;4.25;;;4.00;99.90;;;;;;4906851;29;20051;-68
2021/01/18 09:30:49;;;;;;;12.60;6.10;;;4.00;99.90;;;;;;4907146;29;20033;-69
2021/01/18 09:33:15;;;;;;;14.43;6.43;;;4.10;99.90;;;;;;4906784;29;20505;-68
2021/01/18 09:35:44;;;;;;;23.38;6.07;;;4.20;99.90;;;;;;4907875;29;20044;-69
2021/01/18 09:38:11;;;;;;;11.88;5.38;;;4.10;99.90;;;;;;4906471;29;20100;-68
2021/01/18 09:40:39;;;;;;;22.95;7.20;;;4.10;99.90;;;;;;4907531;29;20037;-71
2021/01/18 09:43:05;;;;;;;12.63;6.90;;;4.10;99.90;;;;;;4907334;29;20489;-70
2021/01/18 09:45:33;;;;;;;11.07;5.82;;;4.10;99.90;;;;;;4908214;29;20108;-70
2021/01/18 09:48:07;;;;;;;14.25;4.63;;;4.20;99.90;;;;;;4907821;29;20044;-72
2021/01/18 09:50:38;;;;;;;;;;;4.20;99.90;;;;;;4906944;29;20075;-70
2021/01/18 09:53:07;;;;;;;15.40;5.70;;;4.20;99.90;;;;;;4908252;29;19974;-71
2021/01/18 09:55:48;;;;;;;16.83;5.68;;;4.20;99.90;;;;;;4907992;29;20037;-69
2021/01/18 09:58:25;;;;;;;12.07;4.80;;;4.30;99.90;;;;;;4908121;29;20036;-71
2021/01/18 10:00:53;;;;;;;13.98;6.70;;;4.30;99.90;;;;;;4907793;29;20033;-69
2021/01/18 10:03:26;;;;;;;18.42;6.65;;;4.30;99.90;;;;;;4907238;29;20032;-69
2021/01/18 10:06:01;;;;;;;14.70;6.05;;;4.30;99.90;;;;;;4906192;29;20228;-70
2021/01/18 10:08:28;;;;;;;13.05;6.72;;;4.30;99.90;;;;;;4905303;29;20025;-69
2021/01/18 10:10:54;;;;;;;12.57;5.25;;;4.30;99.90;;;;;;4906686;29;20482;-70
2021/01/18 10:13:23;;;;;;;29.30;7.47;;;4.40;99.90;;;;;;4905537;29;20067;-69
2021/01/18 10:18:47;;;;;;;9.82;4.60;;;4.40;99.90;;;;;;3251636;27;20040;-70
2021/01/18 10:21:13;;;;;;;17.63;6.20;;;4.50;99.90;;;;;;4907897;29;20040;-73
2021/01/18 10:23:48;;;;;;;18.60;6.07;;;4.50;99.90;;;;;;4908058;29;20142;-73
2021/01/18 10:26:22;;;;;;;14.15;5.53;;;4.50;99.90;;;;;;4908369;29;20024;-70
2021/01/18 10:29:00;;;;;;;20.00;6.50;;;4.50;99.90;;;;;;4908149;29;20048;-71
2021/01/18 10:31:28;;;;;;;17.60;6.05;;;4.50;99.90;;;;;;4907614;29;20397;-69
2021/01/18 10:34:17;;;;;;;28.25;7.15;;;4.60;99.90;;;;;;4909431;29;20036;-71
2021/01/18 10:36:47;;;;;;;22.08;5.63;;;4.60;99.90;;;;;;4894502;29;20123;-71
2021/01/18 10:39:31;;;;;;;10.63;5.38;;;4.60;99.90;;;;;;4911995;29;20080;-71
2021/01/18 10:42:06;;;;;;;19.70;7.78;;;4.60;99.90;;;;;;4911761;29;20051;-71
2021/01/18 10:44:33;;;;;;;12.15;5.97;;;4.60;99.90;;;;;;4911517;29;20056;-70
2021/01/18 10:46:59;;;;;;;20.85;7.45;;;4.70;99.90;;;;;;4912032;29;20029;-70
2021/01/18 10:49:26;;;;;;;11.85;6.75;;;4.70;99.90;;;;;;4911603;29;20025;-70
2021/01/18 10:52:04;;;;;;;27.23;5.90;;;4.70;99.90;;;;;;4911253;29;20037;-71
2021/01/18 10:54:30;;;;;;;18.25;5.57;;;4.70;99.90;;;;;;4911713;29;20028;-73
2021/01/18 10:56:56;;;;;;;23.35;6.32;;;4.70;99.90;;;;;;4911631;29;20035;-71
2021/01/18 10:59:23;;;;;;;19.58;6.60;;;4.70;99.90;;;;;;4910369;29;20028;-71
2021/01/18 11:02:01;;;;;;;14.10;6.63;;;4.70;99.90;;;;;;4910998;29;20029;-71
2021/01/18 11:04:28;;;;;;;20.52;6.30;;;4.70;99.90;;;;;;4911176;29;20052;-72
2021/01/18 11:06:55;;;;;;;27.80;6.78;;;4.70;99.90;;;;;;4894300;29;20025;-71
2021/01/18 11:09:33;;;;;;;9.35;5.10;;;4.70;99.90;;;;;;4894710;29;20032;-71
2021/01/18 11:12:00;;;;;;;9.07;4.35;;;4.80;99.90;;;;;;4894017;29;20104;-70
2021/01/18 11:14:27;;;;;;;24.45;8.15;;;4.80;99.90;;;;;;4910741;29;20040;-72
2021/01/18 11:17:02;;;;;;;13.20;6.10;;;4.80;99.90;;;;;;4902239;29;20024;-70
2021/01/18 11:19:29;;;;;;;12.90;6.55;;;4.80;99.90;;;;;;4910832;29;20056;-71
2021/01/18 11:21:55;;;;;;;12.18;6.20;;;4.80;99.90;;;;;;4899936;29;20037;-72
2021/01/18 11:24:20;;;;;;;19.75;5.22;;;4.80;99.90;;;;;;4910155;29;20025;-71
2021/01/18 11:26:53;;;;;;;17.80;7.78;;;4.80;99.90;;;;;;4910925;29;20076;-71
2021/01/18 11:29:19;;;;;;;13.57;4.72;;;4.80;99.90;;;;;;4909889;29;20080;-70
2021/01/18 11:31:46;;;;;;;9.88;5.22;;;4.80;99.90;;;;;;4910583;29;20773;-73
2021/01/18 11:34:13;;;;;;;16.77;6.78;;;4.80;99.90;;;;;;4910530;29;20040;-73
2021/01/18 11:36:39;;;;;;;13.90;6.53;;;4.90;99.90;;;;;;4893820;29;20033;-72
2021/01/18 11:39:07;;;;;;;17.85;7.15;;;4.80;99.90;;;;;;4904365;29;20433;-71
2021/01/18 11:41:34;;;;;;;12.95;6.88;;;4.90;99.90;;;;;;4896038;29;20386;-73
2021/01/18 11:44:01;;;;;;;28.33;5.95;;;4.80;99.90;;;;;;4902012;29;20055;-72
2021/01/18 11:46:26;;;;;;;18.95;7.75;;;4.90;99.90;;;;;;4904343;29;20033;-72
2021/01/18 11:48:52;;;;;;;14.75;6.50;;;4.90;99.90;;;;;;4900735;29;20078;-72
2021/01/18 11:51:17;;;;;;;23.40;6.20;;;4.90;99.90;;;;;;4898419;29;20093;-72
2021/01/18 11:53:46;;;;;;;22.77;7.88;;;4.90;99.90;;;;;;4898794;29;20072;-71
2021/01/18 11:56:11;;;;;;;18.23;6.75;;;5.00;99.90;;;;;;4899051;29;20045;-71
2021/01/18 11:58:37;;;;;;;14.57;6.40;;;5.00;99.90;;;;;;4902700;29;20024;-71
2021/01/18 12:01:03;;;;;;;17.15;6.93;;;5.00;99.90;;;;;;4898012;29;20037;-72
2021/01/18 12:03:29;;;;;;;13.63;6.57;;;5.00;99.90;;;;;;4897198;29;20063;-71
2021/01/18 12:05:54;;;;;;;16.63;6.80;;;5.00;99.90;;;;;;4910506;29;20024;-71
2021/01/18 12:08:20;;;;;;;29.85;7.00;;;5.00;99.90;;;;;;4896617;29;20029;-73
2021/01/18 12:10:45;;;;;;;25.33;6.60;;;5.00;99.90;;;;;;4889873;29;20047;-72
2021/01/18 12:13:11;;;;;;;16.30;6.40;;;5.00;99.90;;;;;;4891725;29;20056;-70
2021/01/18 12:15:38;;;;;;;20.05;6.18;;;5.00;99.90;;;;;;4891057;29;20093;-70
2021/01/18 12:18:04;;;;;;;11.85;5.97;;;5.00;99.90;;;;;;4895609;29;20140;-71
2021/01/18 12:20:30;;;;;;;23.75;6.80;;;5.00;99.90;;;;;;4897320;29;20398;-71
2021/01/18 12:22:57;;;;;;;11.13;6.10;;;5.00;99.90;;;;;;4899452;29;20020;-70
2021/01/18 12:25:24;;;;;;;13.88;6.97;;;5.00;99.90;;;;;;4898298;29;20028;-68
2021/01/18 12:27:54;;;;;;;9.00;4.45;;;5.00;99.90;;;;;;4899524;29;20045;-69
2021/01/18 12:30:22;;;;;;;13.10;6.45;;;5.00;99.90;;;;;;4909316;29;20048;-71
2021/01/18 12:32:48;;;;;;;10.93;5.25;;;5.00;99.90;;;;;;4899609;29;20068;-71
2021/01/18 12:35:16;;;;;;;22.75;6.78;;;5.00;99.90;;;;;;4909875;29;20028;-70
2021/01/18 12:37:42;;;;;;;14.40;5.53;;;5.00;99.90;;;;;;4908827;29;20028;-71
2021/01/18 12:40:11;;;;;;;9.65;5.55;;;5.00;99.90;;;;;;4909587;29;20040;-72
2021/01/18 12:42:47;;;;;;;17.48;7.10;;;5.00;99.90;;;;;;4909418;29;20099;-71
2021/01/18 12:45:17;;;;;;;17.00;6.38;;;5.10;99.90;;;;;;4909325;29;20072;-71
2021/01/18 12:47:45;;;;;;;21.83;6.20;;;5.10;99.90;;;;;;4892016;29;20088;-70
2021/01/18 12:50:11;;;;;;;15.40;4.53;;;5.10;99.90;;;;;;4907741;29;20657;-70
2021/01/18 12:52:41;;;;;;;16.13;6.18;;;5.10;99.90;;;;;;4904581;29;20117;-73
2021/01/18 12:55:10;;;;;;;10.32;5.63;;;5.10;99.90;;;;;;4900536;29;20069;-72
2021/01/18 12:57:36;;;;;;;21.38;7.28;;;5.00;99.90;;;;;;4898849;29;20048;-71
2021/01/18 13:00:05;;;;;;;13.48;6.20;;;5.10;99.90;;;;;;4900833;29;20033;-71
2021/01/18 13:02:31;;;;;;;14.40;6.00;;;5.00;99.90;;;;;;4896605;29;20045;-70
2021/01/18 13:04:56;;;;;;;10.38;5.53;;;5.00;99.90;;;;;;4896974;29;20621;-70
2021/01/18 13:07:22;;;;;;;23.60;6.65;;;5.00;99.90;;;;;;4889579;29;20129;-71
2021/01/18 13:09:47;;;;;;;17.45;6.93;;;5.00;99.90;;;;;;4889852;29;20029;-71
2021/01/18 13:12:14;;;;;;;11.25;5.35;;;5.00;99.90;;;;;;4890367;29;20478;-72
2021/01/18 13:14:40;;;;;;;17.30;6.82;;;5.00;99.90;;;;;;4889562;29;20037;-71
2021/01/18 13:17:05;;;;;;;6.85;3.35;;;5.00;99.90;;;;;;4900836;29;20108;-72
2021/01/18 13:19:31;;;;;;;18.27;5.95;;;5.00;99.90;;;;;;4892054;29;20095;-72
2021/01/18 13:21:58;;;;;;;10.38;5.53;;;5.00;99.90;;;;;;4909076;29;20069;-70
2021/01/18 13:24:24;;;;;;;11.48;3.58;;;5.00;99.90;;;;;;4907337;29;20025;-71
2021/01/18 13:26:50;;;;;;;26.33;4.78;;;5.00;99.90;;;;;;4908757;29;20025;-71
2021/01/18 13:29:16;;;;;;;10.98;3.53;;;5.00;99.90;;;;;;4908295;29;20028;-70
2021/01/18 13:31:44;;;;;;;19.67;5.47;;;5.10;99.90;;;;;;4907400;29;20038;-71
2021/01/18 13:34:10;;;;;;;12.40;4.75;;;5.00;99.90;;;;;;4908683;29;20024;-71
2021/01/18 13:36:37;;;;;;;11.35;5.00;;;5.00;99.90;;;;;;4909158;29;20025;-70
2021/01/18 13:39:04;;;;;;;12.30;5.05;;;4.90;99.90;;;;;;4908051;29;20111;-69
2021/01/18 13:41:30;;;;;;;14.93;4.05;;;4.90;99.90;;;;;;4907256;29;20043;-70
2021/01/18 13:43:56;;;;;;;14.52;4.80;;;4.90;99.90;;;;;;4908302;29;20029;-70
2021/01/18 13:46:24;;;;;;;7.20;4.25;;;4.90;99.90;;;;;;4908301;29;20055;-71
2021/01/18 13:48:52;;;;;;;10.25;3.47;;;4.90;99.90;;;;;;4908012;29;20025;-70
2021/01/18 13:51:25;;;;;;;9.00;3.97;;;4.90;99.90;;;;;;4907591;29;20053;-70
2021/01/18 13:53:52;;;;;;;11.00;4.20;;;4.90;99.90;;;;;;4906512;29;20044;-71
2021/01/18 13:56:20;;;;;;;11.30;4.85;;;4.80;99.90;;;;;;4907118;29;20029;-70
2021/01/18 13:58:46;;;;;;;10.70;4.43;;;4.80;99.90;;;;;;4907750;29;20029;-69
2021/01/18 14:01:24;;;;;;;10.00;4.65;;;4.90;99.90;;;;;;4907387;29;20354;-71
2021/01/18 14:03:51;;;;;;;8.82;3.95;;;4.80;99.90;;;;;;4908521;29;20039;-70
2021/01/18 14:06:30;;;;;;;7.85;3.75;;;4.80;99.90;;;;;;4907946;29;20054;-71
2021/01/18 14:09:01;;;;;;;15.98;4.65;;;4.90;99.90;;;;;;4910569;29;20033;-71
2021/01/18 14:11:30;;;;;;;7.63;3.60;;;4.90;99.90;;;;;;4911862;29;20037;-71
2021/01/18 14:13:57;;;;;;;10.75;4.63;;;4.90;99.90;;;;;;4911829;29;20040;-72
2021/01/18 14:16:23;;;;;;;8.85;4.63;;;4.90;99.90;;;;;;4911907;29;20037;-72
2021/01/18 14:18:48;;;;;;;9.95;4.75;;;4.90;99.90;;;;;;4895008;29;20056;-71
2021/01/18 14:21:16;;;;;;;8.35;4.53;;;4.90;99.90;;;;;;4911532;29;20056;-72
2021/01/18 14:23:42;;;;;;;11.07;4.07;;;4.80;99.90;;;;;;4911880;29;20071;-73
2021/01/18 14:26:10;;;;;;;10.10;4.60;;;4.90;99.90;;;;;;4895197;29;20032;-72
2021/01/18 14:28:36;;;;;;;7.53;4.03;;;4.90;99.90;;;;;;4910382;29;20037;-73
2021/01/18 14:31:02;;;;;;;6.88;4.20;;;4.90;99.90;;;;;;4912649;29;20574;-71
2021/01/18 14:33:28;;;;;;;11.25;5.68;;;4.90;99.90;;;;;;4911818;29;20068;-71
2021/01/18 14:35:53;;;;;;;13.73;4.90;;;4.80;99.90;;;;;;4911783;29;20045;-71
2021/01/18 14:38:19;;;;;;;18.98;5.47;;;4.90;99.90;;;;;;4912423;29;20024;-75
2021/01/18 14:40:46;;;;;;;8.40;4.28;;;4.90;99.90;;;;;;4911776;29;20100;-74
2021/01/18 14:43:11;;;;;;;7.60;4.55;;;4.90;99.90;;;;;;4911713;29;20029;-73
2021/01/18 14:45:37;;;;;;;11.50;5.88;;;4.90;99.90;;;;;;4912065;29;20039;-72
2021/01/18 14:48:03;;;;;;;11.98;5.03;;;4.90;99.90;;;;;;4910641;29;20059;-73
2021/01/18 14:50:29;;;;;;;13.77;6.15;;;5.00;99.90;;;;;;4911496;29;20029;-73
2021/01/18 14:52:55;;;;;;;9.80;5.25;;;5.00;99.90;;;;;;4910594;29;20043;-75
2021/01/18 14:55:21;;;;;;;7.68;4.53;;;5.00;99.90;;;;;;4911693;29;20037;-72
2021/01/18 14:57:46;;;;;;;7.20;3.42;;;5.00;99.90;;;;;;4910021;29;20036;-72
2021/01/18 15:00:13;;;;;;;16.42;5.85;;;5.00;99.90;;;;;;4912000;29;20029;-73
2021/01/18 15:02:40;;;;;;;11.13;4.97;;;5.00;99.90;;;;;;4911524;29;20041;-75
2021/01/18 15:05:08;;;;;;;12.35;5.78;;;5.00;99.90;;;;;;4911642;29;20025;-73
2021/01/18 15:07:38;;;;;;;11.43;5.65;;;5.00;99.90;;;;;;4911784;29;20067;-73
2021/01/18 15:10:06;;;;;;;14.63;7.30;;;5.00;99.90;;;;;;4911510;29;20560;-74
2021/01/18 15:12:32;;;;;;;23.48;7.10;;;5.00;99.90;;;;;;4911602;29;20061;-73
2021/01/18 15:14:58;;;;;;;16.95;7.78;;;5.00;99.90;;;;;;4894545;29;20096;-76
2021/01/18 15:17:23;;;;;;;21.25;9.82;;;5.00;99.90;;;;;;4910983;29;20029;-73
2021/01/18 15:19:49;;;;;;;17.20;8.38;;;5.00;99.90;;;;;;4910751;29;20060;-73
2021/01/18 15:22:15;;;;;;;14.60;5.75;;;5.00;99.90;;;;;;4911641;29;20028;-74
2021/01/18 15:24:41;;;;;;;10.27;5.82;;;5.00;99.90;;;;;;4910859;29;20033;-73
2021/01/18 15:27:12;;;;;;;27.00;6.80;;;5.10;99.90;;;;;;4910887;29;20037;-73
2021/01/18 15:29:39;;;;;;;18.42;6.70;;;5.00;99.90;;;;;;4894044;29;20040;-73
2021/01/18 15:32:06;;;;;;;10.48;5.97;;;5.10;99.90;;;;;;4908396;29;20060;-73
2021/01/18 15:34:33;;;;;;;14.63;5.85;;;5.10;99.90;;;;;;4894177;29;20401;-70
2021/01/18 15:36:59;;;;;;;8.82;5.28;;;5.10;99.90;;;;;;4910468;29;20024;-70
2021/01/18 15:39:25;;;;;;;11.65;5.25;;;5.10;99.90;;;;;;4909271;29;20040;-71
2021/01/18 15:41:51;;;;;;;15.43;6.15;;;5.10;99.90;;;;;;4911013;29;20053;-71
2021/01/18 15:44:16;;;;;;;11.75;5.50;;;5.00;99.90;;;;;;4909473;29;20029;-71
2021/01/18 15:46:42;;;;;;;12.38;5.70;;;5.00;99.90;;;;;;4910041;29;20025;-72
2021/01/18 15:49:12;;;;;;;11.48;6.30;;;5.00;99.90;;;;;;4910320;29;20052;-72
2021/01/18 15:51:40;;;;;;;17.17;4.85;;;5.10;99.90;;;;;;4910116;29;20032;-71
2021/01/18 15:54:07;;;;;;;9.77;4.57;;;5.10;99.90;;;;;;4910324;29;20041;-71
2021/01/18 15:56:34;;;;;;;13.77;5.60;;;5.10;99.90;;;;;;4910535;29;20031;-72
2021/01/18 15:59:01;;;;;;;12.40;5.65;;;5.10;99.90;;;;;;4910047;29;20028;-73
2021/01/18 16:01:27;;;;;;;12.80;6.18;;;5.10;99.90;;;;;;4908548;29;20059;-71
2021/01/18 16:03:54;;;;;;;19.55;4.60;;;5.10;99.90;;;;;;4910079;29;20032;-71
2021/01/18 16:06:19;;;;;;;10.63;5.32;;;5.10;99.90;;;;;;4909516;29;20024;-72
2021/01/18 16:08:49;;;;;;;8.48;4.10;;;5.10;99.90;;;;;;4909979;29;20495;-72
2021/01/18 16:11:19;;;;;;;9.95;4.85;;;5.10;99.90;;;;;;4910345;29;20057;-71
2021/01/18 16:13:46;;;;;;;10.80;4.82;;;5.10;99.90;;;;;;4909495;29;20496;-72
2021/01/18 16:16:17;;;;;;;10.20;5.15;;;5.00;99.90;;;;;;4909746;29;20041;-73
2021/01/18 16:18:43;;;;;;;11.30;4.75;;;5.00;99.90;;;;;;4909782;29;20048;-73
2021/01/18 16:21:09;;;;;;;10.23;4.47;;;5.00;99.90;;;;;;4909689;29;20041;-72
2021/01/18 16:23:35;;;;;;;9.10;3.58;;;5.00;99.90;;;;;;4892618;29;20490;-71
2021/01/18 16:26:00;;;;;;;6.25;3.50;;;5.00;99.90;;;;;;4910033;29;20061;-71
2021/01/18 16:28:26;;;;;;;6.28;3.63;;;5.00;99.90;;;;;;4909394;29;20040;-71
2021/01/18 16:30:52;;;;;;;9.10;4.55;;;5.00;99.90;;;;;;4891984;29;20037;-72
2021/01/18 16:33:17;;;;;;;11.93;5.97;;;5.00;99.90;;;;;;4909480;29;20092;-73
2021/01/18 16:35:43;;;;;;;8.07;3.90;;;5.00;99.90;;;;;;4909508;29;20036;-72
2021/01/18 16:38:15;;;;;;;12.40;3.88;;;5.00;99.90;;;;;;4909865;29;20481;-71
2021/01/18 16:40:45;;;;;;;8.98;4.22;;;5.00;99.90;;;;;;4893310;29;20060;-72
2021/01/18 16:43:11;;;;;;;8.15;4.43;;;5.00;99.90;;;;;;4909482;29;20730;-70
2021/01/18 16:45:37;;;;;;;8.65;4.85;;;5.00;99.90;;;;;;4909749;29;20028;-74
2021/01/18 16:48:03;;;;;;;7.72;4.82;;;5.00;99.90;;;;;;4892367;29;20025;-69
2021/01/18 16:50:28;;;;;;;10.65;4.95;;;5.00;99.90;;;;;;4909008;29;20096;-70
2021/01/18 16:52:54;;;;;;;11.55;4.38;;;5.00;99.90;;;;;;4909054;29;20067;-70
2021/01/18 16:55:20;;;;;;;18.17;6.15;;;5.00;99.90;;;;;;4909359;29;20080;-71
2021/01/18 16:57:46;;;;;;;9.73;5.25;;;5.00;99.90;;;;;;4908923;29;20056;-69
2021/01/18 17:00:14;;;;;;;16.35;6.60;;;5.00;99.90;;;;;;4909398;29;20489;-70
2021/01/18 17:02:40;;;;;;;20.80;7.75;;;5.00;99.90;;;;;;4908978;29;20115;-71
2021/01/18 17:05:08;;;;;;;16.48;6.93;;;5.10;99.90;;;;;;4892385;29;20513;-71
2021/01/18 17:07:34;;;;;;;20.77;6.05;;;5.10;99.90;;;;;;4909135;29;20032;-70
2021/01/18 17:09:59;;;;;;;14.15;4.68;;;5.10;99.90;;;;;;4908571;29;20060;-70
2021/01/18 17:12:25;;;;;;;8.40;4.82;;;5.10;99.90;;;;;;4908897;29;20045;-71
2021/01/18 17:14:51;;;;;;;14.38;5.93;;;5.00;99.90;;;;;;4909378;29;20033;-70
2021/01/18 17:17:17;;;;;;;11.45;5.78;;;5.00;99.90;;;;;;4909123;29;20039;-72
2021/01/18 17:19:45;;;;;;;7.85;4.85;;;5.00;99.90;;;;;;4908520;29;20056;-71
2021/01/18 17:22:11;;;;;;;9.85;4.95;;;5.00;99.90;;;;;;4892479;29;20056;-72
2021/01/18 17:24:40;;;;;;;11.52;5.20;;;5.00;99.90;;;;;;4909199;29;20397;-72
2021/01/18 17:27:06;;;;;;;17.92;5.32;;;5.10;99.90;;;;;;4909079;29;20036;-72
2021/01/18 17:29:32;;;;;;;20.17;4.45;;;5.10;99.90;;;;;;4909160;29;20035;-71
2021/01/18 17:32:03;;;;;;;12.73;5.93;;;5.10;99.90;;;;;;4908966;29;20024;-71
2021/01/18 17:34:29;;;;;;;9.57;5.28;;;5.10;99.90;;;;;;4891817;29;20405;-70
2021/01/18 17:36:55;;;;;;;9.05;5.32;;;5.10;99.90;;;;;;4892146;29;20092;-71
2021/01/18 17:39:21;;;;;;;27.08;5.78;;;5.00;99.90;;;;;;4891835;29;20666;-72
2021/01/18 17:41:51;;;;;;;26.92;6.90;;;5.10;99.90;;;;;;4908909;29;20045;-72
2021/01/18 17:44:16;;;;;;;18.27;5.72;;;5.10;99.90;;;;;;4908779;29;20020;-74
2021/01/18 17:46:42;;;;;;;9.98;5.80;;;5.10;99.90;;;;;;4891949;29;20028;-71
2021/01/18 17:49:10;;;;;;;17.13;5.53;;;5.10;99.90;;;;;;4908994;29;20040;-71
2021/01/18 17:51:39;;;;;;;13.25;4.75;;;5.10;99.90;;;;;;4909227;29;20035;-72
2021/01/18 17:54:05;;;;;;;14.43;4.97;;;5.10;99.90;;;;;;4908784;29;20197;-72
2021/01/18 17:56:31;;;;;;;4.30;2.47;;;5.10;99.90;;;;;;4908958;29;20477;-72
2021/01/18 17:59:01;;;;;;;8.30;4.57;;;5.10;99.90;;;;;;4908931;29;20028;-71
2021/01/18 18:01:27;;;;;;;8.48;3.83;;;5.10;99.90;;;;;;4891477;29;20139;-70
2021/01/18 18:03:53;;;;;;;6.38;4.03;;;5.10;99.90;;;;;;4908605;29;20112;-71
2021/01/18 18:06:30;;;;;;;10.82;3.78;;;5.10;99.90;;;;;;4908651;29;20028;-71
2021/01/18 18:08:57;;;;;;;7.10;3.92;;;5.10;99.90;;;;;;4908550;29;20346;-71
2021/01/18 18:11:23;;;;;;;8.23;3.67;;;5.10;99.90;;;;;;4907261;29;20036;-70
2021/01/18 18:13:49;;;;;;;4.13;2.97;;;5.10;99.90;;;;;;4908666;29;20052;-70
2021/01/18 18:16:17;;;;;;;15.93;4.18;;;5.10;99.90;;;;;;4908209;29;20043;-70
2021/01/18 18:18:48;;;;;;;9.60;3.70;;;5.10;99.90;;;;;;4908569;29;20060;-71
2021/01/18 18:21:30;;;;;;;17.02;4.70;;;5.10;99.90;;;;;;4908706;29;20112;-71
2021/01/18 18:24:08;;;;;;;15.38;5.15;;;5.10;99.90;;;;;;4908247;29;20032;-72
2021/01/18 18:26:37;;;;;;;15.20;5.10;;;5.10;99.90;;;;;;4908189;29;20028;-69
2021/01/18 18:29:08;;;;;;;13.45;5.20;;;5.10;99.90;;;;;;4908366;29;20033;-69
2021/01/18 18:31:37;;;;;;;12.93;4.22;;;5.10;99.90;;;;;;4908685;29;20028;-71
2021/01/18 18:34:12;;;;;;;15.85;3.78;;;5.00;99.90;;;;;;4908311;29;20040;-69
2021/01/18 18:36:45;;;;;;;4.75;2.88;;;5.10;99.90;;;;;;4908585;29;20048;-72
2021/01/18 18:39:11;;;;;;;10.05;4.25;;;5.10;99.90;;;;;;4908351;29;20074;-70
2021/01/18 18:41:38;;;;;;;9.95;4.32;;;5.00;99.90;;;;;;4908492;29;20064;-70
2021/01/18 18:44:05;;;;;;;7.68;2.90;;;5.00;99.90;;;;;;4907889;29;20033;-69
2021/01/18 18:46:38;;;;;;;7.85;2.60;;;5.00;99.90;;;;;;4907718;29;20485;-69
2021/01/18 18:49:06;;;;;;;6.60;2.97;;;4.90;99.90;;;;;;4906885;29;20033;-72
2021/01/18 18:51:42;;;;;;;5.38;2.55;;;4.90;99.90;;;;;;4904945;29;20117;-72
2021/01/18 18:54:10;;;;;;;11.73;2.05;;;4.90;99.90;;;;;;4908520;29;20088;-71
2021/01/18 18:56:44;;;;;;;13.50;3.33;;;4.90;99.90;;;;;;4911658;29;20106;-72
2021/01/18 18:59:10;;;;;;;5.40;2.75;;;4.90;99.90;;;;;;4911286;29;20033;-71
2021/01/18 19:01:37;;;;;;;3.40;2.25;;;5.00;99.90;;;;;;4910723;29;20041;-71
2021/01/18 19:04:03;;;;;;;7.63;3.88;;;5.00;99.90;;;;;;4911359;29;20024;-72
2021/01/18 19:06:29;;;;;;;14.40;6.28;;;5.00;99.90;;;;;;4909930;29;20041;-70
2021/01/18 19:08:59;;;;;;;11.38;4.93;;;5.00;99.90;;;;;;4911438;29;20124;-70
2021/01/18 19:11:25;;;;;;;10.05;4.15;;;5.00;99.90;;;;;;4911544;29;20056;-70
2021/01/18 19:13:51;;;;;;;10.63;4.50;;;5.00;99.90;;;;;;4911308;29;20036;-70
2021/01/18 19:16:17;;;;;;;7.78;4.03;;;5.00;99.90;;;;;;4911512;29;20028;-71
2021/01/18 19:18:43;;;;;;;9.25;2.80;;;4.90;99.90;;;;;;4909639;29;20521;-71
2021/01/18 19:21:09;;;;;;;9.82;3.53;;;5.00;99.90;;;;;;4911214;29;20028;-70
2021/01/18 19:23:35;;;;;;;5.32;2.67;;;5.00;99.90;;;;;;4911604;29;20029;-71
2021/01/18 19:26:03;;;;;;;8.73;2.88;;;5.00;99.90;;;;;;4908821;29;20068;-72
2021/01/18 19:28:28;;;;;;;8.45;3.55;;;5.00;99.90;;;;;;4910246;29;20044;-71
2021/01/18 19:30:54;;;;;;;5.80;2.30;;;5.00;99.90;;;;;;4910792;29;20024;-71
2021/01/18 19:33:20;;;;;;;4.72;2.38;;;5.00;99.90;;;;;;4910284;29;20069;-73
2021/01/18 19:35:46;;;;;;;16.50;2.55;;;5.00;99.90;;;;;;4907624;29;20039;-71
2021/01/18 19:38:12;;;;;;;6.28;3.25;;;5.00;99.90;;;;;;4910265;29;20033;-70
2021/01/18 19:40:37;;;;;;;4.25;2.35;;;5.00;99.90;;;;;;4893397;29;20072;-73
2021/01/18 19:43:08;;;;;;;16.75;2.70;;;5.00;99.90;;;;;;4909024;29;20025;-71
2021/01/18 19:45:34;;;;;;;5.53;2.63;;;5.00;99.90;;;;;;4910324;29;20090;-71
2021/01/18 19:48:00;;;;;;;4.25;2.50;;;5.00;99.90;;;;;;4909515;29;20472;-70
2021/01/18 19:50:26;;;;;;;7.30;3.67;;;5.00;99.90;;;;;;4910342;29;20080;-71
2021/01/18 19:52:52;;;;;;;6.90;3.55;;;5.10;99.90;;;;;;4910535;29;20048;-71